Time;durP1;ratioP1;P1;durP2;ratioP2;P2;SDS_P1;SDS_P2;PMS_P1;PMS_P2;Temp;Humidity;BMP_temperature;BMP_pressure;BME280_temperature;BME280_humidity;BME280_pressure;Samples;Min_cycle;Max_cycle;Signal;HPM_P1;HPM_P2
2022/04/25 00:02:24;;;;;;;;;;;;;;;8.07;100.00;98276.58;1826241;79;20136;-71
2022/04/25 00:04:52;;;;;;;;;;;;;;;8.11;100.00;98271.10;1826568;79;20127;-73
2022/04/25 00:07:21;;;;;;;;;;;;;;;8.13;100.00;98269.06;1826502;79;20123;-72
2022/04/25 00:09:47;;;;;;;;;;;;;;;8.16;100.00;98259.22;1826990;79;20131;-72
2022/04/25 00:12:16;;;;;;;;;;;;;;;8.16;100.00;98256.04;1826208;79;20104;-73
2022/04/25 00:14:43;;;;;;;;;;;;;;;8.13;100.00;98249.70;1826461;79;20407;-73
2022/04/25 00:17:10;;;;;;;;;;;;;;;8.08;100.00;98251.33;1826914;79;20396;-73
2022/04/25 00:19:37;;;;;;;;;;;;;;;8.03;100.00;98249.75;1826437;79;20104;-72
2022/04/25 00:22:06;;;;;;;;;;;;;;;7.98;100.00;98255.22;1826301;79;20120;-72
2022/04/25 00:24:34;;;;;;;;;;;;;;;7.96;100.00;98247.83;1826783;78;20155;-73
2022/04/25 00:27:02;;;;;;;;;;;;;;;7.97;100.00;98251.38;1826161;79;20389;-73
2022/04/25 00:29:29;;;;;;;;;;;;;;;7.96;100.00;98249.17;1802504;79;20163;-71
2022/04/25 00:31:56;;;;;;;;;;;;;;;7.95;100.00;98252.91;1797285;80;20096;-72
2022/04/25 00:34:24;;;;;;;;;;;;;;;7.93;100.00;98257.67;1789972;80;20128;-72
2022/04/25 00:36:52;;;;;;;;;;;;;;;7.90;100.00;98260.75;1797255;80;20164;-72
2022/04/25 00:39:20;;;;;;;;;;;;;;;7.85;100.00;98272.61;1797116;80;20135;-71
2022/04/25 00:41:48;;;;;;;;;;;;;;;7.81;100.00;98280.77;1797219;79;20124;-71
2022/04/25 00:44:16;;;;;;;;;;;;;;;7.72;100.00;98283.27;1797555;80;20377;-72
2022/04/25 00:46:43;;;;;;;;;;;;;;;7.60;100.00;98289.72;1797233;80;20396;-72
2022/04/25 00:49:10;;;;;;;;;;;;;;;7.49;100.00;98297.80;1797311;80;20115;-72
2022/04/25 00:51:38;;;;;;;;;;;;;;;7.39;100.00;98313.43;1797462;80;20139;-73
2022/04/25 00:54:05;;;;;;;;;;;;;;;7.31;100.00;98314.89;1797492;80;20096;-70
2022/04/25 00:56:32;;;;;;;;;;;;;;;7.21;100.00;98322.77;1773925;80;20406;-71
2022/04/25 00:59:01;;;;;;;;;;;;;;;7.15;100.00;98321.35;1764754;81;20129;-73
2022/04/25 01:01:28;;;;;;;;;;;;;;;7.09;100.00;98326.98;1764282;81;20421;-73
2022/04/25 01:03:57;;;;;;;;;;;;;;;7.06;100.00;98332.73;1764746;81;20121;-71
2022/04/25 01:06:24;;;;;;;;;;;;;;;7.02;100.00;98334.97;1764631;81;20101;-72
2022/04/25 01:08:51;;;;;;;;;;;;;;;6.98;100.00;98336.38;1764536;80;20117;-72
2022/04/25 01:11:18;;;;;;;;;;;;;;;6.92;100.00;98343.84;1764263;81;20090;-73
2022/04/25 01:13:46;;;;;;;;;;;;;;;6.89;100.00;98339.36;1764721;81;20109;-72
2022/04/25 01:16:17;;;;;;;;;;;;;;;6.84;100.00;98339.42;1764555;81;20113;-72
2022/04/25 01:18:44;;;;;;;;;;;;;;;6.78;100.00;98341.53;1743940;81;20129;-72
2022/04/25 01:21:11;;;;;;;;;;;;;;;6.73;100.00;98343.09;1764377;81;20136;-73
2022/04/25 01:29:12;;;;;;;;;;;;;;;6.57;100.00;98348.16;1763583;81;20149;-72
2022/04/25 01:31:41;;;;;;;;;;;;;;;6.52;100.00;98351.42;1754237;81;20158;-72
2022/04/25 01:34:07;;;;;;;;;;;;;;;6.48;100.00;98355.52;1757884;81;20379;-71
2022/04/25 01:36:35;;;;;;;;;;;;;;;6.45;100.00;98356.70;1763094;81;20097;-71
2022/04/25 01:39:03;;;;;;;;;;;;;;;6.42;100.00;98361.09;1762930;81;20386;-71
2022/04/25 01:41:30;;;;;;;;;;;;;;;6.40;100.00;98365.81;1762983;81;20155;-72
2022/04/25 01:43:57;;;;;;;;;;;;;;;6.38;100.00;98368.38;1762688;81;20128;-72
2022/04/25 01:46:24;;;;;;;;;;;;;;;6.36;100.00;98364.53;1762547;81;20097;-73
2022/04/25 01:48:51;;;;;;;;;;;;;;;6.34;100.00;98363.89;1762859;81;20408;-74
2022/04/25 01:51:20;;;;;;;;;;;;;;;6.33;100.00;98364.06;1762912;81;20088;-72
2022/04/25 01:53:48;;;;;;;;;;;;;;;6.34;100.00;98369.25;1762887;81;20128;-73
2022/04/25 01:56:15;;;;;;;;;;;;;;;6.36;100.00;98364.53;1779853;80;20105;-71
2022/04/25 01:58:42;;;;;;;;;;;;;;;6.35;100.00;98357.48;1792725;80;20100;-71
2022/04/25 02:01:10;;;;;;;;;;;;;;;6.38;100.00;98357.64;1792384;80;20530;-72
2022/04/25 02:03:36;;;;;;;;;;;;;;;6.37;100.00;98350.59;1792595;80;20108;-73
2022/04/25 02:06:03;;;;;;;;;;;;;;;6.38;100.00;98352.27;1792600;80;20104;-72
2022/04/25 02:08:31;;;;;;;;;;;;;;;6.38;100.00;98357.12;1792438;80;20111;-71
2022/04/25 02:13:45;;;;;;;;;;;;;;;6.37;100.00;98344.70;1792395;80;20162;-71
2022/04/25 02:16:13;;;;;;;;;;;;;;;6.40;100.00;98346.20;1792608;80;20389;-72
2022/04/25 02:18:41;;;;;;;;;;;;;;;6.41;100.00;98337.96;1792614;80;20133;-72
2022/04/25 02:21:09;;;;;;;;;;;;;;;6.42;100.00;98336.10;1792811;80;20104;-70
2022/04/25 02:23:37;;;;;;;;;;;;;;;6.41;100.00;98337.11;1792431;80;20096;-70
2022/04/25 02:26:05;;;;;;;;;;;;;;;6.39;100.00;98322.55;1792724;80;20123;-72
2022/04/25 02:28:34;;;;;;;;;;;;;;;6.41;100.00;98325.88;1792591;80;20137;-70
2022/04/25 02:31:02;;;;;;;;;;;;;;;6.41;100.00;98321.00;1792620;80;20119;-71
2022/04/25 02:33:32;;;;;;;;;;;;;;;6.39;100.00;98321.22;1792371;80;20115;-71
2022/04/25 02:35:59;;;;;;;;;;;;;;;6.40;100.00;98316.15;1792757;80;20135;-71
2022/04/25 02:38:26;;;;;;;;;;;;;;;6.44;100.00;98313.41;1792748;80;20096;-70
2022/04/25 02:41:05;;;;;;;;;;;;;;;6.46;100.00;98303.34;1792595;80;20104;-71
2022/04/25 02:43:35;;;;;;;;;;;;;;;6.48;100.00;98307.67;1792447;80;20099;-69
2022/04/25 02:46:02;;;;;;;;;;;;;;;6.49;100.00;98302.11;1792818;79;20155;-71
2022/04/25 02:48:30;;;;;;;;;;;;;;;6.51;100.00;98294.70;1792475;80;20135;-70
2022/04/25 02:50:58;;;;;;;;;;;;;;;6.53;100.00;98295.34;1792704;80;20148;-71
2022/04/25 02:53:25;;;;;;;;;;;;;;;6.55;100.00;98296.01;1792328;80;20104;-71
2022/04/25 02:55:53;;;;;;;;;;;;;;;6.57;100.00;98285.91;1785968;80;20108;-71
2022/04/25 02:58:20;;;;;;;;;;;;;;;6.62;100.00;98276.78;1763522;81;20181;-71
2022/04/25 03:00:47;;;;;;;;;;;;;;;6.68;100.00;98264.96;1763308;81;20124;-71
2022/04/25 03:03:15;;;;;;;;;;;;;;;6.71;100.00;98243.92;1763054;81;20408;-70
2022/04/25 03:05:43;;;;;;;;;;;;;;;6.75;100.00;98238.48;1763256;81;20152;-72
2022/04/25 03:08:12;;;;;;;;;;;;;;;6.83;100.00;98230.80;1763480;81;20132;-70
2022/04/25 03:10:38;;;;;;;;;;;;;;;6.89;100.00;98223.82;1763545;81;20141;-70
2022/04/25 03:13:07;;;;;;;;;;;;;;;6.94;100.00;98218.71;1763417;81;20096;-71
2022/04/25 03:15:37;;;;;;;;;;;;;;;6.98;100.00;98207.92;1762997;81;20108;-71
2022/04/25 03:18:03;;;;;;;;;;;;;;;7.02;100.00;98205.97;1763346;81;20104;-70
2022/04/25 03:20:31;;;;;;;;;;;;;;;7.06;100.00;98186.78;1763027;81;20416;-71
2022/04/25 03:22:58;;;;;;;;;;;;;;;7.08;100.00;98172.11;1763436;80;20123;-71
2022/04/25 03:25:26;;;;;;;;;;;;;;;7.15;100.00;98162.27;1763131;81;20096;-71
2022/04/25 03:27:53;;;;;;;;;;;;;;;7.21;100.00;98144.01;1763470;81;20132;-71
2022/04/25 03:30:20;;;;;;;;;;;;;;;7.28;100.00;98131.11;1763494;81;20123;-72
2022/04/25 03:32:47;;;;;;;;;;;;;;;7.36;100.00;98126.41;1763324;81;20104;-71
2022/04/25 03:35:15;;;;;;;;;;;;;;;7.46;100.00;98103.22;1763320;81;20097;-71
2022/04/25 03:37:42;;;;;;;;;;;;;;;7.55;100.00;98070.27;1763935;81;20101;-71
2022/04/25 03:40:12;;;;;;;;;;;;;;;7.63;100.00;98027.04;1763275;81;20120;-72
2022/04/25 03:42:40;;;;;;;;;;;;;;;7.69;100.00;97439.05;1763483;81;20124;-72
2022/04/25 03:45:09;;;;;;;;;;;;;;;7.75;100.00;97440.85;1763249;81;20152;-73
2022/04/25 03:47:41;;;;;;;;;;;;;;;7.82;100.00;97434.91;1763738;81;20133;-72
2022/04/25 03:50:10;;;;;;;;;;;;;;;7.92;100.00;97423.67;1763532;80;20135;-72
2022/04/25 03:52:38;;;;;;;;;;;;;;;7.98;100.00;97415.56;1763521;81;20104;-73
2022/04/25 03:57:53;;;;;;;;;;;;;;;8.13;100.00;97386.97;1769052;79;20112;-73
2022/04/25 04:00:20;;;;;;;;;;;;;;;8.22;100.00;97369.20;1769287;80;20159;-72
2022/04/25 04:02:47;;;;;;;;;;;;;;;8.30;100.00;97370.25;1769372;80;20104;-73
2022/04/25 04:05:14;;;;;;;;;;;;;;;8.36;100.00;97363.45;1769448;80;20417;-70
2022/04/25 04:07:42;;;;;;;;;;;;;;;8.43;100.00;97355.85;1769485;80;20100;-72
2022/04/25 04:10:10;;;;;;;;;;;;;;;8.51;100.00;97344.80;1769838;80;20115;-72
2022/04/25 04:12:38;;;;;;;;;;;;;;;8.60;100.00;97336.72;1769547;80;20377;-72
2022/04/25 04:15:06;;;;;;;;;;;;;;;8.70;100.00;97332.16;1769595;80;20112;-72
2022/04/25 04:17:35;;;;;;;;;;;;;;;8.82;100.00;97316.89;1698442;83;20101;-72
2022/04/25 04:20:04;;;;;;;;;;;;;;;8.97;100.00;97300.31;1698015;85;20097;-72
2022/04/25 04:22:31;;;;;;;;;;;;;;;9.12;100.00;97283.21;1698228;85;20161;-72
2022/04/25 04:25:01;;;;;;;;;;;;;;;9.27;100.00;97272.53;1698031;83;20262;-73
2022/04/25 04:27:32;;;;;;;;;;;;;;;9.41;100.00;97254.27;1698278;85;20113;-73
2022/04/25 04:30:00;;;;;;;;;;;;;;;9.54;100.00;97237.05;1657778;85;20469;-72
2022/04/25 04:32:30;;;;;;;;;;;;;;;9.68;100.00;97222.27;1658004;86;20137;-72
2022/04/25 04:34:59;;;;;;;;;;;;;;;9.83;100.00;97213.19;1657083;86;20280;-72
2022/04/25 04:37:28;;;;;;;;;;;;;;;10.00;100.00;97199.78;1657738;86;20158;-71
2022/04/25 04:42:27;;;;;;;;;;;;;;;10.30;100.00;97173.67;1615631;87;20100;-72
2022/04/25 04:44:54;;;;;;;;;;;;;;;10.43;100.00;97166.15;1622157;89;20095;-72
2022/04/25 04:47:21;;;;;;;;;;;;;;;10.56;100.00;97156.13;1622382;89;20139;-72
2022/04/25 04:49:50;;;;;;;;;;;;;;;10.68;100.00;97156.05;1622134;89;20219;-71
2022/04/25 04:52:17;;;;;;;;;;;;;;;10.82;100.00;97160.92;1622524;89;20144;-71
2022/04/25 04:54:46;;;;;;;;;;;;;;;10.97;100.00;97166.31;1622371;89;20152;-72
2022/04/25 04:57:13;;;;;;;;;;;;;;;11.14;100.00;97179.86;1632802;86;20392;-71
2022/04/25 04:59:40;;;;;;;;;;;;;;;11.30;100.00;97195.81;1661012;86;20142;-73
2022/04/25 05:02:09;;;;;;;;;;;;;;;11.44;100.00;97217.42;1661459;86;20264;-72
2022/04/25 05:04:38;;;;;;;;;;;;;;;11.59;100.00;97249.31;1676137;83;20111;-70
2022/04/25 05:07:06;;;;;;;;;;;;;;;11.74;100.00;97280.69;1667838;84;20132;-72
2022/04/25 05:09:35;;;;;;;;;;;;;;;11.91;100.00;97309.13;1695068;84;20426;-73
2022/04/25 05:12:03;;;;;;;;;;;;;;;12.07;100.00;97340.53;1696822;84;20103;-73
2022/04/25 05:14:31;;;;;;;;;;;;;;;12.24;100.00;97376.56;1694526;85;20138;-72
2022/04/25 05:16:58;;;;;;;;;;;;;;;12.42;100.00;97416.67;1694951;85;20115;-72
2022/04/25 05:19:26;;;;;;;;;;;;;;;12.61;100.00;97457.91;1722374;80;20097;-72
2022/04/25 05:21:53;;;;;;;;;;;;;;;12.76;100.00;97498.78;1780262;81;20100;-71
2022/04/25 05:24:20;;;;;;;;;;;;;;;12.96;100.00;97540.85;1779710;81;20152;-73
2022/04/25 05:26:48;;;;;;;;;;;;;;;13.13;100.00;97578.29;1779843;80;20116;-71
2022/04/25 05:29:16;;;;;;;;;;;;;;;13.32;100.00;97667.09;1815624;79;20102;-72
2022/04/25 05:31:45;;;;;;;;;;;;;;;13.53;100.00;97780.06;1823153;78;20135;-71
2022/04/25 05:34:14;;;;;;;;;;;;;;;13.71;100.00;97897.16;1791724;79;20133;-70
2022/04/25 05:36:42;;;;;;;;;;;;;;;13.91;100.00;98017.05;1758677;82;20387;-70
2022/04/25 05:39:09;;;;;;;;;;;;;;;14.13;100.00;98125.06;1758378;82;20129;-73
2022/04/25 05:41:38;;;;;;;;;;;;;;;14.28;100.00;98271.36;1760364;81;20152;-72
2022/04/25 05:44:05;;;;;;;;;;;;;;;14.44;100.00;98397.06;1761816;82;20090;-72
2022/04/25 05:46:33;;;;;;;;;;;;;;;14.65;100.00;98480.55;1761640;82;20090;-71
2022/04/25 05:52:02;;;;;;;;;;;;;;;15.07;100.00;98565.63;1762125;82;20098;-73
2022/04/25 05:54:31;;;;;;;;;;;;;;;15.33;100.00;98695.55;1761706;82;20126;-73
2022/04/25 05:56:58;;;;;;;;;;;;;;;15.51;100.00;98817.20;1754231;80;20162;-72
2022/04/25 05:59:27;;;;;;;;;;;;;;;15.62;100.00;98914.50;1742141;82;20435;-72
2022/04/25 06:01:54;;;;;;;;;;;;;;;15.72;100.00;99005.22;1742520;82;20134;-73
2022/04/25 06:04:23;;;;;;;;;;;;;;;15.84;100.00;99057.92;1742308;82;20152;-72
2022/04/25 06:06:50;;;;;;;;;;;;;;;15.99;100.00;99097.08;1741844;82;20126;-73
2022/04/25 06:09:19;;;;;;;;;;;;;;;16.16;100.00;99142.80;1741778;82;20463;-73
2022/04/25 06:11:46;;;;;;;;;;;;;;;16.34;100.00;99168.66;1749134;82;20123;-74
2022/04/25 06:14:15;;;;;;;;;;;;;;;16.51;100.00;99197.52;1743276;82;20139;-72
2022/04/25 06:16:42;;;;;;;;;;;;;;;16.70;100.00;99212.79;1743961;82;20118;-73
2022/04/25 06:19:11;;;;;;;;;;;;;;;16.87;100.00;99242.20;1743048;82;20119;-73
2022/04/25 06:21:39;;;;;;;;;;;;;;;16.96;100.00;99282.30;1742790;82;20135;-73
2022/04/25 06:24:07;;;;;;;;;;;;;;;17.08;100.00;99311.85;1742633;82;20127;-72
2022/04/25 06:26:36;;;;;;;;;;;;;;;17.21;100.00;99323.12;1743121;82;20136;-73
2022/04/25 06:29:03;;;;;;;;;;;;;;;17.31;100.00;99325.30;1743307;82;20118;-74
2022/04/25 06:31:35;;;;;;;;;;;;;;;17.40;100.00;99346.58;1743461;82;20138;-73
2022/04/25 06:34:02;;;;;;;;;;;;;;;17.48;100.00;99355.00;1742660;82;20134;-72
2022/04/25 06:36:30;;;;;;;;;;;;;;;17.57;100.00;99376.83;1740560;83;20108;-77
2022/04/25 06:38:58;;;;;;;;;;;;;;;17.62;100.00;99392.55;1742998;82;20162;-74
2022/04/25 06:41:26;;;;;;;;;;;;;;;17.68;100.00;99413.47;1740746;82;20127;-74
2022/04/25 06:43:53;;;;;;;;;;;;;;;17.76;100.00;99408.20;1740637;82;20131;-72
2022/04/25 06:46:23;;;;;;;;;;;;;;;17.90;100.00;99418.43;1742955;82;20407;-73
2022/04/25 06:51:22;;;;;;;;;;;;;;;18.29;100.00;99414.74;1680935;85;20116;-72
2022/04/25 06:53:50;;;;;;;;;;;;;;;18.54;100.00;99422.75;1715735;83;20168;-72
2022/04/25 06:56:18;;;;;;;;;;;;;;;18.74;100.00;99427.84;1716057;84;20409;-72
2022/04/25 06:58:45;;;;;;;;;;;;;;;18.88;100.00;99440.24;1729293;83;20133;-72
2022/04/25 07:01:13;;;;;;;;;;;;;;;18.93;100.00;99438.16;1729748;83;21087;-73
2022/04/25 07:03:40;;;;;;;;;;;;;;;18.96;100.00;99441.25;1728791;83;20144;-73
2022/04/25 07:06:07;;;;;;;;;;;;;;;19.10;100.00;99441.80;1728409;83;20128;-74
2022/04/25 07:08:36;;;;;;;;;;;;;;;19.29;100.00;99446.58;1728496;82;20144;-74
2022/04/25 07:11:04;;;;;;;;;;;;;;;19.41;100.00;99463.00;1728363;83;20176;-73
2022/04/25 07:13:33;;;;;;;;;;;;;;;19.58;100.00;99465.79;1728454;83;20168;-74
2022/04/25 07:16:00;;;;;;;;;;;;;;;19.77;100.00;99469.20;1728306;83;20164;-74
2022/04/25 07:18:31;;;;;;;;;;;;;;;19.94;100.00;99493.09;1728692;83;20425;-74
2022/04/25 07:20:58;;;;;;;;;;;;;;;20.09;100.00;99620.45;1730858;83;20128;-73
2022/04/25 07:31:20;;;;;;;;;;;;;;;20.64;100.00;99706.94;1752353;82;20419;-74
2022/04/25 07:33:47;;;;;;;;;;;;;;;20.68;100.00;99716.89;1775075;80;20121;-75
2022/04/25 07:36:15;;;;;;;;;;;;;;;20.65;100.00;99716.86;1747731;82;20144;-75
2022/04/25 07:38:42;;;;;;;;;;;;;;;20.72;100.00;99710.40;1748433;82;20186;-74
2022/04/25 07:41:09;;;;;;;;;;;;;;;20.68;100.00;99712.77;1748284;82;20127;-74
2022/04/25 07:43:36;;;;;;;;;;;;;;;20.60;100.00;99711.23;1748498;82;20116;-75
2022/04/25 07:46:03;;;;;;;;;;;;;;;20.47;100.00;99706.88;1748735;82;20130;-75
2022/04/25 07:48:34;;;;;;;;;;;;;;;20.58;100.00;99695.55;1748250;82;20166;-75
2022/04/25 07:50:59;;;;;;;;;;;;;;;20.71;100.00;99695.80;1748257;82;20174;-74
2022/04/25 07:53:30;;;;;;;;;;;;;;;20.81;100.00;99697.38;1748378;82;20133;-75
2022/04/25 07:55:57;;;;;;;;;;;;;;;20.95;100.00;99692.41;1747277;82;20127;-72
2022/04/25 07:58:23;;;;;;;;;;;;;;;21.05;100.00;99693.11;1736497;82;20140;-73
2022/04/25 08:00:51;;;;;;;;;;;;;;;21.19;100.00;99701.31;1732612;82;20155;-70
2022/04/25 08:03:20;;;;;;;;;;;;;;;21.15;100.00;99713.08;1732750;83;20160;-71
2022/04/25 08:05:47;;;;;;;;;;;;;;;21.18;100.00;99708.47;1732583;83;20147;-73
2022/04/25 08:08:14;;;;;;;;;;;;;;;21.39;100.00;99686.27;1732742;83;20131;-73
2022/04/25 08:10:43;;;;;;;;;;;;;;;21.63;100.00;99692.97;1732106;83;20128;-71
2022/04/25 08:18:44;;;;;;;;;;;;;;;21.94;100.00;99695.07;1733142;83;20187;-74
2022/04/25 08:21:11;;;;;;;;;;;;;;;22.05;100.00;99686.95;1737470;81;20106;-74
2022/04/25 08:23:40;;;;;;;;;;;;;;;22.29;100.00;99674.63;1745841;81;20112;-74
2022/04/25 08:26:08;;;;;;;;;;;;;;;22.49;100.00;99671.81;1752927;81;20113;-73
2022/04/25 08:28:37;;;;;;;;;;;;;;;22.50;100.00;99682.55;1790658;78;20540;-74
2022/04/25 08:31:04;;;;;;;;;;;;;;;22.36;100.00;99678.02;1798661;80;20110;-73
2022/04/25 08:33:31;;;;;;;;;;;;;;;22.34;100.00;99676.03;1799947;80;20138;-71
2022/04/25 08:35:59;;;;;;;;;;;;;;;22.07;100.00;99684.78;1771604;81;20148;-73
2022/04/25 08:38:26;;;;;;;;;;;;;;;21.88;100.00;99678.73;1771915;81;20423;-72
2022/04/25 08:40:54;;;;;;;;;;;;;;;21.95;100.00;99681.58;1770055;81;20159;-73
2022/04/25 08:43:22;;;;;;;;;;;;;;;21.92;100.00;99673.00;1771495;81;20147;-74
2022/04/25 08:45:49;;;;;;;;;;;;;;;22.03;100.00;99662.95;1771628;80;20100;-73
2022/04/25 08:48:18;;;;;;;;;;;;;;;22.07;100.00;99658.63;1770829;81;20155;-73
2022/04/25 08:50:46;;;;;;;;;;;;;;;22.28;100.00;99645.97;1771085;81;20123;-72
2022/04/25 08:53:15;;;;;;;;;;;;;;;22.59;100.00;99647.11;1770843;79;20148;-74
2022/04/25 08:55:42;;;;;;;;;;;;;;;22.88;100.00;99650.42;1770809;81;20123;-72
2022/04/25 08:58:09;;;;;;;;;;;;;;;23.09;100.00;99651.47;1776907;80;20128;-74
2022/04/25 09:00:37;;;;;;;;;;;;;;;23.17;100.00;99652.90;1759244;81;20121;-73
2022/04/25 09:03:06;;;;;;;;;;;;;;;23.00;100.00;99656.30;1754746;82;20128;-74
2022/04/25 09:05:36;;;;;;;;;;;;;;;22.78;100.00;99648.13;1754983;82;20178;-73
2022/04/25 09:08:04;;;;;;;;;;;;;;;22.80;100.00;99645.94;1754716;82;20163;-74
2022/04/25 09:10:31;;;;;;;;;;;;;;;22.84;100.00;99647.07;1756453;82;20409;-72
2022/04/25 09:13:00;;;;;;;;;;;;;;;22.69;100.00;99643.63;1756544;82;20152;-74
2022/04/25 09:15:28;;;;;;;;;;;;;;;22.91;100.00;99635.28;1717706;82;22442;-73
2022/04/25 09:17:55;;;;;;;;;;;;;;;23.02;100.00;99633.44;1756012;82;20136;-73
2022/04/25 09:20:24;;;;;;;;;;;;;;;23.11;100.00;99627.22;1755826;81;20084;-71
2022/04/25 09:22:51;;;;;;;;;;;;;;;23.22;100.00;99632.26;1755968;82;20128;-74
2022/04/25 09:25:18;;;;;;;;;;;;;;;23.31;100.00;99628.45;1755578;82;20105;-72
2022/04/25 09:27:47;;;;;;;;;;;;;;;23.43;100.00;99626.34;1758918;81;20092;-75
2022/04/25 09:30:21;;;;;;;;;;;;;;;23.60;100.00;99621.18;1781800;81;20116;-72
2022/04/25 09:32:53;;;;;;;;;;;;;;;23.68;100.00;99621.50;1782182;81;20194;-72
2022/04/25 09:35:37;;;;;;;;;;;;;;;23.81;100.00;99628.50;1757828;81;20442;-71
2022/04/25 09:38:04;;;;;;;;;;;;;;;23.85;100.00;99631.55;1755625;82;20100;-72
2022/04/25 09:40:33;;;;;;;;;;;;;;;23.69;100.00;99625.94;1755495;82;20125;-72
2022/04/25 09:43:16;;;;;;;;;;;;;;;23.66;100.00;99618.75;1770120;80;20173;-70
2022/04/25 09:45:45;;;;;;;;;;;;;;;23.79;100.00;99616.86;1746529;80;20209;-71
2022/04/25 09:48:23;;;;;;;;;;;;;;;23.99;100.00;99626.37;1773902;80;20102;-73
2022/04/25 09:51:00;;;;;;;;;;;;;;;24.05;98.89;99618.40;1763362;80;20146;-73
2022/04/25 09:53:52;;;;;;;;;;;;;;;23.92;100.00;99613.36;1712711;83;20162;-71
2022/04/25 09:56:26;;;;;;;;;;;;;;;24.20;100.00;99618.98;1712665;82;20138;-72
2022/04/25 09:59:05;;;;;;;;;;;;;;;24.69;100.00;99610.28;1734690;83;20146;-72
2022/04/25 10:01:35;;;;;;;;;;;;;;;24.73;95.93;99614.14;1735502;83;20234;-71
2022/04/25 10:04:03;;;;;;;;;;;;;;;24.25;93.88;99609.34;1735072;83;20116;-70
2022/04/25 10:06:32;;;;;;;;;;;;;;;24.08;100.00;99599.88;1735620;83;20939;-70
2022/04/25 10:09:02;;;;;;;;;;;;;;;23.96;99.48;99601.52;1688029;84;20462;-71
2022/04/25 10:11:32;;;;;;;;;;;;;;;23.66;100.00;99604.39;1688198;85;20291;-71
2022/04/25 10:13:59;;;;;;;;;;;;;;;23.45;99.05;99611.72;1688356;85;20135;-70
2022/04/25 10:16:28;;;;;;;;;;;;;;;22.87;96.98;99608.78;1687997;85;20455;-71
2022/04/25 10:18:57;;;;;;;;;;;;;;;22.53;100.00;99606.28;1688406;84;20167;-71
2022/04/25 10:21:24;;;;;;;;;;;;;;;22.46;100.00;99607.03;1688146;85;20131;-71
2022/04/25 10:23:51;;;;;;;;;;;;;;;22.58;100.00;99604.13;1688314;85;20150;-69
2022/04/25 10:26:22;;;;;;;;;;;;;;;22.78;100.00;99602.66;1687525;85;20174;-71
2022/04/25 10:28:53;;;;;;;;;;;;;;;23.21;100.00;99594.73;1692733;84;20602;-72
2022/04/25 10:31:24;;;;;;;;;;;;;;;23.58;100.00;99601.30;1708809;84;20266;-71
2022/04/25 10:33:54;;;;;;;;;;;;;;;23.61;100.00;99594.70;1695394;84;20220;-71
2022/04/25 10:36:40;;;;;;;;;;;;;;;23.84;100.00;99585.73;1709416;84;20165;-72
2022/04/25 10:39:17;;;;;;;;;;;;;;;24.17;95.95;99589.14;1709740;84;20105;-72
2022/04/25 10:44:49;;;;;;;;;;;;;;;24.19;88.54;99585.58;1710692;84;20967;-69
2022/04/25 10:47:18;;;;;;;;;;;;;;;24.09;89.46;99575.88;1711602;83;20113;-66
2022/04/25 10:49:48;;;;;;;;;;;;;;;24.10;97.87;99577.52;1688286;83;20449;-69
2022/04/25 10:52:42;;;;;;;;;;;;;;;24.32;98.74;99571.79;1675834;86;20140;-67
2022/04/25 10:55:32;;;;;;;;;;;;;;;24.26;97.81;99574.54;1671266;85;20132;-69
2022/04/25 10:58:07;;;;;;;;;;;;;;;24.32;99.97;99565.70;1692008;84;20139;-74
2022/04/25 11:00:41;;;;;;;;;;;;;;;24.72;100.00;99559.13;1694591;85;20443;-71
2022/04/25 11:03:12;;;;;;;;;;;;;;;25.11;97.98;99568.25;1694977;85;20139;-74
2022/04/25 11:05:41;;;;;;;;;;;;;;;25.43;95.31;99555.48;1722025;81;20162;-73
2022/04/25 11:08:21;;;;;;;;;;;;;;;25.42;88.86;99559.91;1754748;81;20107;-71
2022/04/25 11:11:04;;;;;;;;;;;;;;;25.18;80.26;99562.70;1754271;81;20444;-71
2022/04/25 11:13:37;;;;;;;;;;;;;;;24.63;79.83;99556.11;1754085;82;20133;-72
2022/04/25 11:16:22;;;;;;;;;;;;;;;24.26;87.66;99562.11;1790985;79;20105;-73
2022/04/25 11:19:17;;;;;;;;;;;;;;;24.28;95.07;99558.26;1795638;79;20114;-72
2022/04/25 11:21:47;;;;;;;;;;;;;;;24.40;93.29;99553.27;1794166;78;20097;-70
2022/04/25 11:24:33;;;;;;;;;;;;;;;24.68;87.43;99560.80;1733750;83;20120;-71
2022/04/25 11:27:01;;;;;;;;;;;;;;;24.78;87.70;99553.89;1737942;81;20129;-73
2022/04/25 11:29:30;;;;;;;;;;;;;;;24.92;89.85;99552.22;1749367;81;20101;-72
2022/04/25 11:32:25;;;;;;;;;;;;;;;25.19;90.45;99553.83;1755034;81;20465;-73
2022/04/25 11:34:55;;;;;;;;;;;;;;;25.49;87.11;99543.27;1713866;83;20168;-70
2022/04/25 11:37:22;;;;;;;;;;;;;;;25.61;78.85;99539.36;1711156;83;20127;-72
2022/04/25 11:40:00;;;;;;;;;;;;;;;25.54;78.56;99539.09;1712510;83;20489;-71
2022/04/25 11:42:29;;;;;;;;;;;;;;;25.63;83.78;99536.57;1589603;89;20443;-72
2022/04/25 11:44:56;;;;;;;;;;;;;;;25.79;84.94;99530.98;1585630;90;20119;-71
2022/04/25 11:47:24;;;;;;;;;;;;;;;25.77;82.81;99529.88;1586725;90;20132;-72
2022/04/25 11:50:03;;;;;;;;;;;;;;;25.54;78.17;99535.51;1585459;88;20135;-73
2022/04/25 11:52:30;;;;;;;;;;;;;;;25.16;79.09;99530.34;1572972;91;20171;-72
2022/04/25 11:54:57;;;;;;;;;;;;;;;24.75;83.18;99531.75;1572776;91;20150;-74
2022/04/25 11:57:26;;;;;;;;;;;;;;;24.62;84.59;99533.15;1573465;90;20199;-72
2022/04/25 12:00:12;;;;;;;;;;;;;;;24.44;79.77;99532.30;1573437;90;20210;-70
2022/04/25 12:02:39;;;;;;;;;;;;;;;24.17;76.27;99532.52;1553937;91;20174;-72
2022/04/25 12:05:07;;;;;;;;;;;;;;;24.03;76.23;99525.34;1574070;91;20137;-73
2022/04/25 12:07:36;;;;;;;;;;;;;;;23.97;77.73;99525.03;1544736;91;20236;-73
2022/04/25 12:15:40;;;;;;;;;;;;;;;23.80;81.18;99517.81;1546931;93;20156;-68
2022/04/25 12:18:27;;;;;;;;;;;;;;;24.01;83.49;99523.38;1546333;93;20104;-69
2022/04/25 12:21:09;;;;;;;;;;;;;;;24.01;75.71;99517.84;1578162;89;20118;-71
2022/04/25 12:23:43;;;;;;;;;;;;;;;23.58;75.83;99514.38;1608293;87;20114;-69
2022/04/25 12:26:15;;;;;;;;;;;;;;;23.42;83.41;99522.59;1630702;88;20113;-72
2022/04/25 12:28:51;;;;;;;;;;;;;;;23.60;82.74;99519.08;1649396;86;20422;-73
2022/04/25 12:31:20;;;;;;;;;;;;;;;23.60;85.33;99520.45;1672826;84;20140;-71
2022/04/25 12:33:50;;;;;;;;;;;;;;;23.74;85.71;99511.13;1696388;84;20125;-73
2022/04/25 12:36:23;;;;;;;;;;;;;;;23.49;84.34;99517.65;1678020;86;20105;-71
2022/04/25 12:38:58;;;;;;;;;;;;;;;22.98;86.27;99521.48;1676935;86;20153;-71
2022/04/25 12:41:31;;;;;;;;;;;;;;;22.42;90.87;99512.25;1677323;86;20145;-71
2022/04/25 12:44:01;;;;;;;;;;;;;;;22.32;97.64;99503.89;1676569;86;20129;-70
2022/04/25 12:46:36;;;;;;;;;;;;;;;22.46;96.03;99498.78;1677740;86;20153;-71
2022/04/25 12:49:11;;;;;;;;;;;;;;;22.56;100.00;99487.86;1713545;83;20128;-70
2022/04/25 12:51:45;;;;;;;;;;;;;;;22.86;99.31;99484.48;1736202;83;20183;-70
2022/04/25 12:54:33;;;;;;;;;;;;;;;22.99;95.59;99482.36;1734699;83;20221;-72
2022/04/25 12:57:18;;;;;;;;;;;;;;;23.02;100.00;99479.89;1734497;83;20152;-69
2022/04/25 12:59:46;;;;;;;;;;;;;;;23.20;97.26;99479.20;1734577;82;20472;-71
2022/04/25 13:02:17;;;;;;;;;;;;;;;23.34;95.66;99468.47;1724664;83;20175;-72
2022/04/25 13:04:52;;;;;;;;;;;;;;;23.52;94.04;99465.25;1676713;86;20136;-69
2022/04/25 13:07:25;;;;;;;;;;;;;;;23.52;89.26;99460.30;1642175;86;20400;-71
2022/04/25 13:09:56;;;;;;;;;;;;;;;23.54;91.74;99460.84;1642195;86;20108;-72
2022/04/25 13:12:35;;;;;;;;;;;;;;;23.61;89.42;99461.42;1605878;89;20150;-72
2022/04/25 13:15:04;;;;;;;;;;;;;;;23.31;87.82;99459.64;1642635;87;20159;-71
2022/04/25 13:17:32;;;;;;;;;;;;;;;23.01;90.12;99456.16;1605844;89;20120;-73
2022/04/25 13:19:59;;;;;;;;;;;;;;;22.87;90.06;99452.23;1604132;89;20116;-71
2022/04/25 13:22:28;;;;;;;;;;;;;;;22.76;91.48;99451.34;1604131;88;20132;-70
2022/04/25 13:24:55;;;;;;;;;;;;;;;22.76;93.06;99451.34;1586117;89;20144;-72
2022/04/25 13:27:22;;;;;;;;;;;;;;;22.69;92.76;99447.43;1582556;91;20170;-72
2022/04/25 13:29:50;;;;;;;;;;;;;;;22.87;96.21;99442.58;1591999;90;20122;-72
2022/04/25 13:32:17;;;;;;;;;;;;;;;23.12;97.25;99448.28;1592702;90;20123;-74
2022/04/25 13:34:43;;;;;;;;;;;;;;;23.28;92.55;99452.46;1599997;90;20111;-72
2022/04/25 13:37:13;;;;;;;;;;;;;;;23.28;92.03;99436.77;1603444;88;20472;-71